sensor_id;sensor_type;location;lat;lon;timestamp;P1;durP1;ratioP1;P2;durP2;ratioP2
2408;SDS011;8463;48.094;7.970;2022-10-13T00:01:20;8.30;;;6.00;;
2408;SDS011;8463;48.094;7.970;2022-10-13T00:03:47;8.10;;;6.73;;
2408;SDS011;8463;48.094;7.970;2022-10-13T00:06:13;7.77;;;6.93;;
2408;SDS011;8463;48.094;7.970;2022-10-13T00:08:42;12.20;;;8.17;;
2408;SDS011;8463;48.094;7.970;2022-10-13T00:11:12;8.73;;;6.63;;
2408;SDS011;8463;48.094;7.970;2022-10-13T00:13:45;10.67;;;6.60;;
2408;SDS011;8463;48.094;7.970;2022-10-13T00:16:12;8.00;;;6.57;;
2408;SDS011;8463;48.094;7.970;2022-10-13T00:18:39;7.40;;;5.60;;
2408;SDS011;8463;48.094;7.970;2022-10-13T00:21:09;6.13;;;5.50;;
2408;SDS011;8463;48.094;7.970;2022-10-13T00:23:37;6.83;;;6.03;;
2408;SDS011;8463;48.094;7.970;2022-10-13T00:26:04;8.80;;;6.00;;
2408;SDS011;8463;48.094;7.970;2022-10-13T00:28:31;10.03;;;7.00;;
2408;SDS011;8463;48.094;7.970;2022-10-13T00:30:57;10.53;;;7.10;;
2408;SDS011;8463;48.094;7.970;2022-10-13T00:33:22;7.20;;;6.33;;
2408;SDS011;8463;48.094;7.970;2022-10-13T00:35:48;6.87;;;6.17;;
2408;SDS011;8463;48.094;7.970;2022-10-13T00:38:15;8.80;;;7.67;;
2408;SDS011;8463;48.094;7.970;2022-10-13T00:40:46;10.40;;;7.77;;
2408;SDS011;8463;48.094;7.970;2022-10-13T00:43:19;11.93;;;7.73;;
2408;SDS011;8463;48.094;7.970;2022-10-13T00:45:46;11.60;;;7.87;;
2408;SDS011;8463;48.094;7.970;2022-10-13T00:48:16;10.50;;;7.13;;
2408;SDS011;8463;48.094;7.970;2022-10-13T00:50:53;8.20;;;6.63;;
2408;SDS011;8463;48.094;7.970;2022-10-13T00:53:22;10.00;;;6.73;;
2408;SDS011;8463;48.094;7.970;2022-10-13T00:55:51;9.93;;;5.90;;
2408;SDS011;8463;48.094;7.970;2022-10-13T00:58:17;8.40;;;7.00;;
2408;SDS011;8463;48.094;7.970;2022-10-13T01:00:47;9.90;;;7.37;;
2408;SDS011;8463;48.094;7.970;2022-10-13T01:03:14;14.80;;;6.93;;
2408;SDS011;8463;48.094;7.970;2022-10-13T01:05:41;10.20;;;7.30;;
2408;SDS011;8463;48.094;7.970;2022-10-13T01:08:08;6.77;;;6.07;;
2408;SDS011;8463;48.094;7.970;2022-10-13T01:10:39;9.23;;;6.13;;
2408;SDS011;8463;48.094;7.970;2022-10-13T01:15:46;8.07;;;6.27;;
2408;SDS011;8463;48.094;7.970;2022-10-13T01:18:33;10.83;;;6.20;;
2408;SDS011;8463;48.094;7.970;2022-10-13T01:26:51;7.50;;;6.73;;
2408;SDS011;8463;48.094;7.970;2022-10-13T01:35:32;7.87;;;6.90;;
2408;SDS011;8463;48.094;7.970;2022-10-13T01:43:28;8.43;;;7.10;;
2408;SDS011;8463;48.094;7.970;2022-10-13T01:49:00;9.80;;;6.27;;
2408;SDS011;8463;48.094;7.970;2022-10-13T01:51:29;6.43;;;5.83;;
2408;SDS011;8463;48.094;7.970;2022-10-13T01:53:56;8.60;;;6.13;;
2408;SDS011;8463;48.094;7.970;2022-10-13T01:56:22;6.90;;;5.70;;
2408;SDS011;8463;48.094;7.970;2022-10-13T01:58:49;7.03;;;5.50;;
2408;SDS011;8463;48.094;7.970;2022-10-13T02:06:44;8.93;;;5.93;;
2408;SDS011;8463;48.094;7.970;2022-10-13T02:11:51;7.33;;;6.00;;
2408;SDS011;8463;48.094;7.970;2022-10-13T02:14:31;7.23;;;5.97;;
2408;SDS011;8463;48.094;7.970;2022-10-13T02:17:01;9.57;;;8.33;;
2408;SDS011;8463;48.094;7.970;2022-10-13T02:19:29;7.40;;;6.40;;
2408;SDS011;8463;48.094;7.970;2022-10-13T02:21:59;6.73;;;6.13;;
2408;SDS011;8463;48.094;7.970;2022-10-13T02:24:25;6.37;;;5.30;;
2408;SDS011;8463;48.094;7.970;2022-10-13T02:26:51;6.30;;;5.70;;
2408;SDS011;8463;48.094;7.970;2022-10-13T02:29:17;7.07;;;6.00;;
2408;SDS011;8463;48.094;7.970;2022-10-13T02:31:44;6.67;;;5.13;;
2408;SDS011;8463;48.094;7.970;2022-10-13T02:34:10;7.10;;;5.67;;
2408;SDS011;8463;48.094;7.970;2022-10-13T02:36:37;6.47;;;5.60;;
2408;SDS011;8463;48.094;7.970;2022-10-13T02:39:04;9.60;;;6.13;;
2408;SDS011;8463;48.094;7.970;2022-10-13T02:41:34;6.30;;;5.80;;
2408;SDS011;8463;48.094;7.970;2022-10-13T02:44:00;8.47;;;5.60;;
2408;SDS011;8463;48.094;7.970;2022-10-13T02:46:25;8.07;;;5.80;;
2408;SDS011;8463;48.094;7.970;2022-10-13T02:48:51;8.17;;;5.97;;
2408;SDS011;8463;48.094;7.970;2022-10-13T02:51:16;7.97;;;5.93;;
2408;SDS011;8463;48.094;7.970;2022-10-13T02:53:42;7.53;;;5.80;;
2408;SDS011;8463;48.094;7.970;2022-10-13T02:56:08;7.60;;;5.43;;
2408;SDS011;8463;48.094;7.970;2022-10-13T02:58:34;7.10;;;5.67;;
2408;SDS011;8463;48.094;7.970;2022-10-13T03:01:10;6.33;;;4.93;;
2408;SDS011;8463;48.094;7.970;2022-10-13T03:03:38;5.43;;;4.93;;
2408;SDS011;8463;48.094;7.970;2022-10-13T03:06:04;8.07;;;4.97;;
2408;SDS011;8463;48.094;7.970;2022-10-13T03:08:31;7.77;;;5.93;;
2408;SDS011;8463;48.094;7.970;2022-10-13T03:10:57;6.93;;;6.23;;
2408;SDS011;8463;48.094;7.970;2022-10-13T03:13:23;6.20;;;5.60;;
2408;SDS011;8463;48.094;7.970;2022-10-13T03:15:48;6.13;;;5.03;;
2408;SDS011;8463;48.094;7.970;2022-10-13T03:18:14;6.10;;;5.50;;
2408;SDS011;8463;48.094;7.970;2022-10-13T03:20:40;6.83;;;5.53;;
2408;SDS011;8463;48.094;7.970;2022-10-13T03:23:06;7.33;;;5.60;;
2408;SDS011;8463;48.094;7.970;2022-10-13T03:25:32;7.03;;;5.07;;
2408;SDS011;8463;48.094;7.970;2022-10-13T03:27:58;7.50;;;6.20;;
2408;SDS011;8463;48.094;7.970;2022-10-13T03:30:24;8.70;;;6.30;;
2408;SDS011;8463;48.094;7.970;2022-10-13T03:32:50;7.53;;;5.70;;
2408;SDS011;8463;48.094;7.970;2022-10-13T03:35:16;6.33;;;5.53;;
2408;SDS011;8463;48.094;7.970;2022-10-13T03:37:41;5.73;;;5.10;;
2408;SDS011;8463;48.094;7.970;2022-10-13T03:40:07;11.20;;;6.00;;
2408;SDS011;8463;48.094;7.970;2022-10-13T03:42:34;7.20;;;6.20;;
2408;SDS011;8463;48.094;7.970;2022-10-13T03:45:00;7.53;;;5.57;;
2408;SDS011;8463;48.094;7.970;2022-10-13T03:47:27;9.03;;;6.00;;
2408;SDS011;8463;48.094;7.970;2022-10-13T03:49:53;6.90;;;6.00;;
2408;SDS011;8463;48.094;7.970;2022-10-13T03:52:19;11.07;;;6.60;;
2408;SDS011;8463;48.094;7.970;2022-10-13T03:54:45;9.90;;;5.80;;
2408;SDS011;8463;48.094;7.970;2022-10-13T03:57:11;8.70;;;5.47;;
2408;SDS011;8463;48.094;7.970;2022-10-13T03:59:38;7.67;;;5.60;;
2408;SDS011;8463;48.094;7.970;2022-10-13T04:02:07;6.23;;;4.90;;
2408;SDS011;8463;48.094;7.970;2022-10-13T04:04:33;8.40;;;6.77;;
2408;SDS011;8463;48.094;7.970;2022-10-13T04:06:59;6.90;;;5.23;;
2408;SDS011;8463;48.094;7.970;2022-10-13T04:09:25;7.13;;;5.20;;
2408;SDS011;8463;48.094;7.970;2022-10-13T04:11:51;7.77;;;6.40;;
2408;SDS011;8463;48.094;7.970;2022-10-13T04:14:17;6.83;;;5.60;;
2408;SDS011;8463;48.094;7.970;2022-10-13T04:16:43;9.17;;;6.20;;
2408;SDS011;8463;48.094;7.970;2022-10-13T04:19:10;7.33;;;6.00;;
2408;SDS011;8463;48.094;7.970;2022-10-13T04:21:37;10.73;;;7.73;;
2408;SDS011;8463;48.094;7.970;2022-10-13T04:24:03;7.50;;;6.80;;
2408;SDS011;8463;48.094;7.970;2022-10-13T04:26:31;10.33;;;6.83;;
2408;SDS011;8463;48.094;7.970;2022-10-13T04:29:00;6.83;;;5.77;;
2408;SDS011;8463;48.094;7.970;2022-10-13T04:31:27;9.73;;;6.20;;
2408;SDS011;8463;48.094;7.970;2022-10-13T04:33:54;9.10;;;5.50;;
2408;SDS011;8463;48.094;7.970;2022-10-13T04:36:20;10.90;;;6.63;;
2408;SDS011;8463;48.094;7.970;2022-10-13T04:38:46;8.50;;;6.57;;
2408;SDS011;8463;48.094;7.970;2022-10-13T04:41:13;5.83;;;5.20;;
2408;SDS011;8463;48.094;7.970;2022-10-13T04:43:40;6.03;;;5.40;;
2408;SDS011;8463;48.094;7.970;2022-10-13T04:46:12;6.40;;;5.27;;
2408;SDS011;8463;48.094;7.970;2022-10-13T04:48:39;6.20;;;5.60;;
2408;SDS011;8463;48.094;7.970;2022-10-13T04:51:06;8.77;;;5.83;;
2408;SDS011;8463;48.094;7.970;2022-10-13T04:53:34;6.93;;;6.10;;
2408;SDS011;8463;48.094;7.970;2022-10-13T04:56:04;11.30;;;7.23;;
2408;SDS011;8463;48.094;7.970;2022-10-13T04:58:35;7.00;;;5.77;;
2408;SDS011;8463;48.094;7.970;2022-10-13T05:01:01;11.10;;;7.40;;
2408;SDS011;8463;48.094;7.970;2022-10-13T05:03:28;14.53;;;6.20;;
2408;SDS011;8463;48.094;7.970;2022-10-13T05:05:54;13.67;;;6.67;;
2408;SDS011;8463;48.094;7.970;2022-10-13T05:08:20;8.60;;;6.93;;
2408;SDS011;8463;48.094;7.970;2022-10-13T05:10:53;7.83;;;6.50;;
2408;SDS011;8463;48.094;7.970;2022-10-13T05:13:23;10.33;;;6.63;;
2408;SDS011;8463;48.094;7.970;2022-10-13T05:15:50;7.60;;;6.23;;
2408;SDS011;8463;48.094;7.970;2022-10-13T05:18:16;6.97;;;6.30;;
2408;SDS011;8463;48.094;7.970;2022-10-13T05:20:41;7.93;;;6.30;;
2408;SDS011;8463;48.094;7.970;2022-10-13T05:23:07;8.07;;;6.77;;
2408;SDS011;8463;48.094;7.970;2022-10-13T05:25:33;9.03;;;7.37;;
2408;SDS011;8463;48.094;7.970;2022-10-13T05:28:00;8.53;;;5.83;;
2408;SDS011;8463;48.094;7.970;2022-10-13T05:30:25;9.30;;;6.00;;
2408;SDS011;8463;48.094;7.970;2022-10-13T05:32:51;8.90;;;6.40;;
2408;SDS011;8463;48.094;7.970;2022-10-13T05:35:17;7.03;;;6.33;;
2408;SDS011;8463;48.094;7.970;2022-10-13T05:37:42;9.17;;;6.70;;
2408;SDS011;8463;48.094;7.970;2022-10-13T05:40:08;9.50;;;6.10;;
2408;SDS011;8463;48.094;7.970;2022-10-13T05:42:34;8.63;;;6.90;;
2408;SDS011;8463;48.094;7.970;2022-10-13T05:45:00;8.30;;;5.00;;
2408;SDS011;8463;48.094;7.970;2022-10-13T05:47:26;10.63;;;6.17;;
2408;SDS011;8463;48.094;7.970;2022-10-13T05:49:53;5.90;;;5.23;;
2408;SDS011;8463;48.094;7.970;2022-10-13T05:52:19;8.13;;;5.33;;
2408;SDS011;8463;48.094;7.970;2022-10-13T05:54:47;6.80;;;5.20;;
2408;SDS011;8463;48.094;7.970;2022-10-13T05:57:20;5.87;;;5.07;;
2408;SDS011;8463;48.094;7.970;2022-10-13T05:59:50;7.63;;;5.57;;
2408;SDS011;8463;48.094;7.970;2022-10-13T06:02:19;9.43;;;5.57;;
2408;SDS011;8463;48.094;7.970;2022-10-13T06:04:49;8.07;;;5.90;;
2408;SDS011;8463;48.094;7.970;2022-10-13T06:07:17;8.63;;;5.10;;
2408;SDS011;8463;48.094;7.970;2022-10-13T06:09:43;7.17;;;6.07;;
2408;SDS011;8463;48.094;7.970;2022-10-13T06:12:09;8.50;;;5.40;;
2408;SDS011;8463;48.094;7.970;2022-10-13T06:14:35;8.40;;;6.00;;
2408;SDS011;8463;48.094;7.970;2022-10-13T06:17:01;7.17;;;5.17;;
2408;SDS011;8463;48.094;7.970;2022-10-13T06:19:26;7.67;;;5.17;;
2408;SDS011;8463;48.094;7.970;2022-10-13T06:21:52;6.17;;;5.50;;
2408;SDS011;8463;48.094;7.970;2022-10-13T06:24:18;9.00;;;6.30;;
2408;SDS011;8463;48.094;7.970;2022-10-13T06:26:43;9.20;;;6.07;;
2408;SDS011;8463;48.094;7.970;2022-10-13T06:29:09;6.40;;;5.50;;
2408;SDS011;8463;48.094;7.970;2022-10-13T06:31:35;8.70;;;6.00;;
2408;SDS011;8463;48.094;7.970;2022-10-13T06:34:00;7.50;;;5.60;;
2408;SDS011;8463;48.094;7.970;2022-10-13T06:36:26;8.00;;;5.90;;
2408;SDS011;8463;48.094;7.970;2022-10-13T06:38:51;9.30;;;5.80;;
2408;SDS011;8463;48.094;7.970;2022-10-13T06:41:17;10.83;;;6.50;;
2408;SDS011;8463;48.094;7.970;2022-10-13T06:43:43;8.57;;;5.80;;
2408;SDS011;8463;48.094;7.970;2022-10-13T06:46:09;5.33;;;4.83;;
2408;SDS011;8463;48.094;7.970;2022-10-13T06:48:35;6.70;;;5.87;;
2408;SDS011;8463;48.094;7.970;2022-10-13T06:51:02;7.43;;;6.17;;
2408;SDS011;8463;48.094;7.970;2022-10-13T06:53:29;9.20;;;6.37;;
2408;SDS011;8463;48.094;7.970;2022-10-13T06:56:00;7.20;;;5.23;;
2408;SDS011;8463;48.094;7.970;2022-10-13T06:58:27;8.00;;;6.23;;
2408;SDS011;8463;48.094;7.970;2022-10-13T07:00:53;8.33;;;6.03;;
2408;SDS011;8463;48.094;7.970;2022-10-13T07:03:19;9.90;;;6.60;;
2408;SDS011;8463;48.094;7.970;2022-10-13T07:05:45;6.10;;;5.50;;
2408;SDS011;8463;48.094;7.970;2022-10-13T07:08:11;9.97;;;6.10;;
2408;SDS011;8463;48.094;7.970;2022-10-13T07:10:38;12.63;;;5.70;;
2408;SDS011;8463;48.094;7.970;2022-10-13T07:13:04;6.80;;;6.10;;
2408;SDS011;8463;48.094;7.970;2022-10-13T07:15:30;6.70;;;5.27;;
2408;SDS011;8463;48.094;7.970;2022-10-13T07:17:56;8.73;;;6.80;;
2408;SDS011;8463;48.094;7.970;2022-10-13T07:20:22;9.60;;;6.60;;
2408;SDS011;8463;48.094;7.970;2022-10-13T07:22:48;6.80;;;6.10;;
2408;SDS011;8463;48.094;7.970;2022-10-13T07:25:14;6.50;;;5.70;;
2408;SDS011;8463;48.094;7.970;2022-10-13T07:27:40;7.40;;;6.70;;
2408;SDS011;8463;48.094;7.970;2022-10-13T07:30:08;6.37;;;5.77;;
2408;SDS011;8463;48.094;7.970;2022-10-13T07:32:34;7.33;;;6.37;;
2408;SDS011;8463;48.094;7.970;2022-10-13T07:35:00;8.03;;;6.13;;
2408;SDS011;8463;48.094;7.970;2022-10-13T07:37:26;9.57;;;6.77;;
2408;SDS011;8463;48.094;7.970;2022-10-13T07:39:52;7.47;;;6.80;;
2408;SDS011;8463;48.094;7.970;2022-10-13T07:42:18;8.27;;;6.87;;
2408;SDS011;8463;48.094;7.970;2022-10-13T07:44:44;9.93;;;6.20;;
2408;SDS011;8463;48.094;7.970;2022-10-13T07:47:10;7.53;;;6.17;;
2408;SDS011;8463;48.094;7.970;2022-10-13T07:49:35;7.50;;;6.43;;
2408;SDS011;8463;48.094;7.970;2022-10-13T07:52:01;7.37;;;5.93;;
2408;SDS011;8463;48.094;7.970;2022-10-13T07:54:27;10.07;;;6.20;;
2408;SDS011;8463;48.094;7.970;2022-10-13T07:56:53;6.70;;;5.97;;
2408;SDS011;8463;48.094;7.970;2022-10-13T07:59:20;6.80;;;6.20;;
2408;SDS011;8463;48.094;7.970;2022-10-13T08:01:46;8.80;;;6.70;;
2408;SDS011;8463;48.094;7.970;2022-10-13T08:04:11;7.03;;;6.33;;
2408;SDS011;8463;48.094;7.970;2022-10-13T08:06:37;6.73;;;6.13;;
2408;SDS011;8463;48.094;7.970;2022-10-13T08:09:03;9.27;;;6.47;;
2408;SDS011;8463;48.094;7.970;2022-10-13T08:11:29;6.60;;;5.27;;
2408;SDS011;8463;48.094;7.970;2022-10-13T08:13:55;7.50;;;6.37;;
2408;SDS011;8463;48.094;7.970;2022-10-13T08:16:28;7.70;;;6.00;;
2408;SDS011;8463;48.094;7.970;2022-10-13T08:18:55;7.70;;;5.70;;
2408;SDS011;8463;48.094;7.970;2022-10-13T08:21:22;5.67;;;5.00;;
2408;SDS011;8463;48.094;7.970;2022-10-13T08:23:48;6.07;;;5.20;;
2408;SDS011;8463;48.094;7.970;2022-10-13T08:26:19;7.67;;;6.07;;
2408;SDS011;8463;48.094;7.970;2022-10-13T08:28:47;7.27;;;5.10;;
2408;SDS011;8463;48.094;7.970;2022-10-13T08:31:13;7.40;;;5.57;;
2408;SDS011;8463;48.094;7.970;2022-10-13T08:33:38;9.43;;;6.00;;
2408;SDS011;8463;48.094;7.970;2022-10-13T08:36:05;6.50;;;5.90;;
2408;SDS011;8463;48.094;7.970;2022-10-13T08:38:32;8.67;;;6.40;;
2408;SDS011;8463;48.094;7.970;2022-10-13T08:40:58;5.70;;;5.00;;
2408;SDS011;8463;48.094;7.970;2022-10-13T08:43:23;7.37;;;5.80;;
2408;SDS011;8463;48.094;7.970;2022-10-13T08:45:52;7.60;;;5.33;;
2408;SDS011;8463;48.094;7.970;2022-10-13T08:48:24;6.90;;;6.00;;
2408;SDS011;8463;48.094;7.970;2022-10-13T08:50:57;6.37;;;5.77;;
2408;SDS011;8463;48.094;7.970;2022-10-13T08:53:29;7.20;;;5.70;;
2408;SDS011;8463;48.094;7.970;2022-10-13T08:56:06;5.73;;;4.93;;
2408;SDS011;8463;48.094;7.970;2022-10-13T08:58:49;8.00;;;5.87;;
2408;SDS011;8463;48.094;7.970;2022-10-13T09:01:21;7.03;;;5.90;;
2408;SDS011;8463;48.094;7.970;2022-10-13T09:03:49;9.60;;;7.10;;
2408;SDS011;8463;48.094;7.970;2022-10-13T09:06:51;11.60;;;8.20;;
2408;SDS011;8463;48.094;7.970;2022-10-13T09:09:22;13.13;;;9.43;;
2408;SDS011;8463;48.094;7.970;2022-10-13T09:11:49;10.30;;;8.13;;
2408;SDS011;8463;48.094;7.970;2022-10-13T09:16:48;12.00;;;8.30;;
2408;SDS011;8463;48.094;7.970;2022-10-13T09:19:32;9.27;;;7.80;;
2408;SDS011;8463;48.094;7.970;2022-10-13T09:24:38;12.47;;;8.10;;
2408;SDS011;8463;48.094;7.970;2022-10-13T09:27:05;8.10;;;7.40;;
2408;SDS011;8463;48.094;7.970;2022-10-13T09:29:36;9.63;;;7.87;;
2408;SDS011;8463;48.094;7.970;2022-10-13T09:32:21;9.53;;;7.40;;
2408;SDS011;8463;48.094;7.970;2022-10-13T09:34:50;12.07;;;8.00;;
2408;SDS011;8463;48.094;7.970;2022-10-13T09:37:23;10.67;;;9.00;;
2408;SDS011;8463;48.094;7.970;2022-10-13T09:42:43;13.13;;;8.70;;
2408;SDS011;8463;48.094;7.970;2022-10-13T09:45:16;9.20;;;7.50;;
2408;SDS011;8463;48.094;7.970;2022-10-13T09:47:48;10.83;;;7.97;;
2408;SDS011;8463;48.094;7.970;2022-10-13T09:50:29;13.50;;;8.63;;
2408;SDS011;8463;48.094;7.970;2022-10-13T09:53:13;13.83;;;9.43;;
2408;SDS011;8463;48.094;7.970;2022-10-13T09:55:40;10.20;;;8.40;;
2408;SDS011;8463;48.094;7.970;2022-10-13T09:58:10;12.80;;;9.13;;
2408;SDS011;8463;48.094;7.970;2022-10-13T10:00:38;17.77;;;8.70;;
2408;SDS011;8463;48.094;7.970;2022-10-13T10:08:13;8.83;;;7.80;;
2408;SDS011;8463;48.094;7.970;2022-10-13T10:10:41;11.10;;;8.17;;
2408;SDS011;8463;48.094;7.970;2022-10-13T10:13:08;10.67;;;7.93;;
2408;SDS011;8463;48.094;7.970;2022-10-13T10:15:46;7.90;;;7.10;;
2408;SDS011;8463;48.094;7.970;2022-10-13T10:18:28;9.53;;;6.20;;
2408;SDS011;8463;48.094;7.970;2022-10-13T10:23:40;6.80;;;5.30;;
2408;SDS011;8463;48.094;7.970;2022-10-13T10:26:22;11.07;;;6.50;;
2408;SDS011;8463;48.094;7.970;2022-10-13T10:39:34;9.73;;;7.57;;
2408;SDS011;8463;48.094;7.970;2022-10-13T10:44:52;9.83;;;6.90;;
2408;SDS011;8463;48.094;7.970;2022-10-13T10:49:50;31.97;;;8.00;;
2408;SDS011;8463;48.094;7.970;2022-10-13T10:52:26;9.27;;;6.60;;
2408;SDS011;8463;48.094;7.970;2022-10-13T11:00:30;9.40;;;8.00;;
2408;SDS011;8463;48.094;7.970;2022-10-13T11:08:38;9.33;;;6.63;;
2408;SDS011;8463;48.094;7.970;2022-10-13T11:11:34;9.70;;;7.83;;
2408;SDS011;8463;48.094;7.970;2022-10-13T11:16:57;10.67;;;6.40;;
2408;SDS011;8463;48.094;7.970;2022-10-13T11:40:34;8.27;;;5.67;;
2408;SDS011;8463;48.094;7.970;2022-10-13T11:45:37;5.10;;;4.27;;
2408;SDS011;8463;48.094;7.970;2022-10-13T11:56:44;4.60;;;4.03;;
2408;SDS011;8463;48.094;7.970;2022-10-13T12:01:53;6.40;;;4.10;;
2408;SDS011;8463;48.094;7.970;2022-10-13T12:04:24;5.33;;;4.30;;
2408;SDS011;8463;48.094;7.970;2022-10-13T12:07:02;4.40;;;4.00;;
2408;SDS011;8463;48.094;7.970;2022-10-13T12:09:30;7.90;;;3.93;;
2408;SDS011;8463;48.094;7.970;2022-10-13T12:12:01;5.00;;;4.37;;
2408;SDS011;8463;48.094;7.970;2022-10-13T12:14:34;5.17;;;3.50;;
2408;SDS011;8463;48.094;7.970;2022-10-13T12:17:16;6.10;;;3.70;;
2408;SDS011;8463;48.094;7.970;2022-10-13T12:19:58;5.90;;;4.03;;
2408;SDS011;8463;48.094;7.970;2022-10-13T12:22:25;4.43;;;4.03;;
2408;SDS011;8463;48.094;7.970;2022-10-13T12:27:29;9.70;;;4.50;;
2408;SDS011;8463;48.094;7.970;2022-10-13T12:29:57;13.60;;;4.10;;
2408;SDS011;8463;48.094;7.970;2022-10-13T12:32:27;5.80;;;3.70;;
2408;SDS011;8463;48.094;7.970;2022-10-13T12:34:54;7.50;;;4.17;;
2408;SDS011;8463;48.094;7.970;2022-10-13T12:37:24;6.67;;;3.43;;
2408;SDS011;8463;48.094;7.970;2022-10-13T12:39:54;4.70;;;3.83;;
2408;SDS011;8463;48.094;7.970;2022-10-13T12:42:23;4.40;;;2.93;;
2408;SDS011;8463;48.094;7.970;2022-10-13T12:45:00;9.53;;;4.13;;
2408;SDS011;8463;48.094;7.970;2022-10-13T12:55:35;5.30;;;3.43;;
2408;SDS011;8463;48.094;7.970;2022-10-13T12:58:15;9.47;;;5.10;;
2408;SDS011;8463;48.094;7.970;2022-10-13T13:00:44;4.80;;;4.00;;
2408;SDS011;8463;48.094;7.970;2022-10-13T13:03:31;5.00;;;3.40;;
2408;SDS011;8463;48.094;7.970;2022-10-13T13:17:03;4.93;;;3.40;;
2408;SDS011;8463;48.094;7.970;2022-10-13T13:19:35;5.50;;;3.50;;
2408;SDS011;8463;48.094;7.970;2022-10-13T13:22:02;3.93;;;3.63;;
2408;SDS011;8463;48.094;7.970;2022-10-13T13:24:29;6.23;;;4.70;;
2408;SDS011;8463;48.094;7.970;2022-10-13T13:26:55;4.87;;;3.57;;
2408;SDS011;8463;48.094;7.970;2022-10-13T13:29:21;3.33;;;2.77;;
2408;SDS011;8463;48.094;7.970;2022-10-13T13:31:46;3.90;;;3.20;;
2408;SDS011;8463;48.094;7.970;2022-10-13T13:34:12;9.40;;;4.33;;
2408;SDS011;8463;48.094;7.970;2022-10-13T13:36:38;7.47;;;3.07;;
2408;SDS011;8463;48.094;7.970;2022-10-13T13:39:05;6.80;;;3.17;;
2408;SDS011;8463;48.094;7.970;2022-10-13T13:41:36;8.80;;;4.17;;
2408;SDS011;8463;48.094;7.970;2022-10-13T13:44:01;5.50;;;3.40;;
2408;SDS011;8463;48.094;7.970;2022-10-13T13:46:27;8.43;;;5.03;;
2408;SDS011;8463;48.094;7.970;2022-10-13T13:48:53;7.40;;;4.70;;
2408;SDS011;8463;48.094;7.970;2022-10-13T13:51:18;4.10;;;3.53;;
2408;SDS011;8463;48.094;7.970;2022-10-13T13:53:44;4.70;;;3.70;;
2408;SDS011;8463;48.094;7.970;2022-10-13T13:56:14;7.63;;;4.20;;
2408;SDS011;8463;48.094;7.970;2022-10-13T13:58:41;6.80;;;3.87;;
2408;SDS011;8463;48.094;7.970;2022-10-13T14:01:07;6.20;;;4.17;;
2408;SDS011;8463;48.094;7.970;2022-10-13T14:03:33;4.37;;;3.50;;
2408;SDS011;8463;48.094;7.970;2022-10-13T14:05:59;5.93;;;4.50;;
2408;SDS011;8463;48.094;7.970;2022-10-13T14:08:24;6.83;;;5.30;;
2408;SDS011;8463;48.094;7.970;2022-10-13T14:10:50;4.90;;;3.63;;
2408;SDS011;8463;48.094;7.970;2022-10-13T14:13:15;6.13;;;4.13;;
2408;SDS011;8463;48.094;7.970;2022-10-13T14:15:41;7.77;;;4.07;;
2408;SDS011;8463;48.094;7.970;2022-10-13T14:18:07;4.90;;;4.13;;
2408;SDS011;8463;48.094;7.970;2022-10-13T14:20:32;6.43;;;3.47;;
2408;SDS011;8463;48.094;7.970;2022-10-13T14:22:58;10.57;;;7.80;;
2408;SDS011;8463;48.094;7.970;2022-10-13T14:25:23;5.60;;;4.10;;
2408;SDS011;8463;48.094;7.970;2022-10-13T14:27:49;4.23;;;3.87;;
2408;SDS011;8463;48.094;7.970;2022-10-13T14:30:15;8.63;;;6.40;;
2408;SDS011;8463;48.094;7.970;2022-10-13T14:32:40;4.93;;;3.40;;
2408;SDS011;8463;48.094;7.970;2022-10-13T14:35:06;6.23;;;4.70;;
2408;SDS011;8463;48.094;7.970;2022-10-13T14:37:32;9.33;;;4.50;;
2408;SDS011;8463;48.094;7.970;2022-10-13T14:39:58;4.93;;;4.43;;
2408;SDS011;8463;48.094;7.970;2022-10-13T14:42:23;5.70;;;4.43;;
2408;SDS011;8463;48.094;7.970;2022-10-13T14:44:49;8.20;;;5.03;;
2408;SDS011;8463;48.094;7.970;2022-10-13T14:47:15;7.13;;;5.13;;
2408;SDS011;8463;48.094;7.970;2022-10-13T14:49:40;4.47;;;3.83;;
2408;SDS011;8463;48.094;7.970;2022-10-13T14:52:06;7.13;;;4.00;;
2408;SDS011;8463;48.094;7.970;2022-10-13T14:54:32;6.63;;;5.30;;
2408;SDS011;8463;48.094;7.970;2022-10-13T14:56:58;11.70;;;4.43;;
2408;SDS011;8463;48.094;7.970;2022-10-13T14:59:28;6.60;;;4.83;;
2408;SDS011;8463;48.094;7.970;2022-10-13T15:01:54;6.13;;;4.57;;
2408;SDS011;8463;48.094;7.970;2022-10-13T15:04:20;7.07;;;4.23;;
2408;SDS011;8463;48.094;7.970;2022-10-13T15:06:46;5.23;;;4.60;;
2408;SDS011;8463;48.094;7.970;2022-10-13T15:09:11;7.57;;;4.90;;
2408;SDS011;8463;48.094;7.970;2022-10-13T15:11:37;5.20;;;4.10;;
2408;SDS011;8463;48.094;7.970;2022-10-13T15:14:03;4.03;;;3.63;;
2408;SDS011;8463;48.094;7.970;2022-10-13T15:16:29;6.10;;;3.90;;
2408;SDS011;8463;48.094;7.970;2022-10-13T15:18:57;4.40;;;3.90;;
2408;SDS011;8463;48.094;7.970;2022-10-13T15:21:23;7.27;;;4.37;;
2408;SDS011;8463;48.094;7.970;2022-10-13T15:23:49;9.90;;;4.67;;
2408;SDS011;8463;48.094;7.970;2022-10-13T15:26:16;8.73;;;4.83;;
2408;SDS011;8463;48.094;7.970;2022-10-13T15:28:44;7.93;;;5.03;;
2408;SDS011;8463;48.094;7.970;2022-10-13T15:31:11;5.40;;;4.37;;
2408;SDS011;8463;48.094;7.970;2022-10-13T15:33:38;5.80;;;4.77;;
2408;SDS011;8463;48.094;7.970;2022-10-13T15:36:10;6.47;;;5.33;;
2408;SDS011;8463;48.094;7.970;2022-10-13T15:38:36;7.73;;;4.40;;
2408;SDS011;8463;48.094;7.970;2022-10-13T15:41:02;8.47;;;4.60;;
2408;SDS011;8463;48.094;7.970;2022-10-13T15:43:29;8.40;;;4.97;;
2408;SDS011;8463;48.094;7.970;2022-10-13T15:46:01;5.20;;;4.70;;
2408;SDS011;8463;48.094;7.970;2022-10-13T15:48:28;5.30;;;3.77;;
2408;SDS011;8463;48.094;7.970;2022-10-13T15:50:55;6.10;;;5.47;;
2408;SDS011;8463;48.094;7.970;2022-10-13T15:53:21;8.17;;;5.00;;
2408;SDS011;8463;48.094;7.970;2022-10-13T15:55:47;5.40;;;4.10;;
2408;SDS011;8463;48.094;7.970;2022-10-13T15:58:13;4.80;;;3.57;;
2408;SDS011;8463;48.094;7.970;2022-10-13T16:00:39;4.93;;;4.30;;
2408;SDS011;8463;48.094;7.970;2022-10-13T16:03:05;6.03;;;4.80;;
2408;SDS011;8463;48.094;7.970;2022-10-13T16:05:31;5.80;;;5.27;;
2408;SDS011;8463;48.094;7.970;2022-10-13T16:07:57;5.90;;;4.50;;
2408;SDS011;8463;48.094;7.970;2022-10-13T16:10:23;8.77;;;7.93;;
2408;SDS011;8463;48.094;7.970;2022-10-13T16:12:48;8.23;;;6.60;;
2408;SDS011;8463;48.094;7.970;2022-10-13T16:15:14;11.23;;;6.30;;
2408;SDS011;8463;48.094;7.970;2022-10-13T16:17:41;15.03;;;12.90;;
2408;SDS011;8463;48.094;7.970;2022-10-13T16:20:10;11.73;;;8.73;;
2408;SDS011;8463;48.094;7.970;2022-10-13T16:22:36;12.43;;;9.97;;
2408;SDS011;8463;48.094;7.970;2022-10-13T16:25:02;6.67;;;6.00;;
2408;SDS011;8463;48.094;7.970;2022-10-13T16:27:27;12.97;;;7.43;;
2408;SDS011;8463;48.094;7.970;2022-10-13T16:29:53;16.93;;;10.93;;
2408;SDS011;8463;48.094;7.970;2022-10-13T16:32:19;17.53;;;11.53;;
2408;SDS011;8463;48.094;7.970;2022-10-13T16:34:45;12.10;;;8.87;;
2408;SDS011;8463;48.094;7.970;2022-10-13T16:37:11;17.27;;;13.13;;
2408;SDS011;8463;48.094;7.970;2022-10-13T16:39:37;10.37;;;8.03;;
2408;SDS011;8463;48.094;7.970;2022-10-13T16:42:03;13.83;;;8.17;;
2408;SDS011;8463;48.094;7.970;2022-10-13T16:44:28;13.07;;;7.40;;
2408;SDS011;8463;48.094;7.970;2022-10-13T16:46:54;10.27;;;6.73;;
2408;SDS011;8463;48.094;7.970;2022-10-13T16:49:21;10.17;;;8.07;;
2408;SDS011;8463;48.094;7.970;2022-10-13T16:51:46;30.77;;;23.43;;
2408;SDS011;8463;48.094;7.970;2022-10-13T16:54:12;17.30;;;14.07;;
2408;SDS011;8463;48.094;7.970;2022-10-13T16:56:37;12.47;;;10.27;;
2408;SDS011;8463;48.094;7.970;2022-10-13T16:59:04;10.07;;;7.97;;
2408;SDS011;8463;48.094;7.970;2022-10-13T17:01:31;8.87;;;7.30;;
2408;SDS011;8463;48.094;7.970;2022-10-13T17:03:58;9.23;;;6.17;;
2408;SDS011;8463;48.094;7.970;2022-10-13T17:06:24;8.30;;;6.43;;
2408;SDS011;8463;48.094;7.970;2022-10-13T17:08:51;8.50;;;7.07;;
2408;SDS011;8463;48.094;7.970;2022-10-13T17:11:21;10.23;;;7.40;;
2408;SDS011;8463;48.094;7.970;2022-10-13T17:13:51;12.43;;;10.10;;
2408;SDS011;8463;48.094;7.970;2022-10-13T17:16:17;8.37;;;7.47;;
2408;SDS011;8463;48.094;7.970;2022-10-13T17:18:44;8.27;;;7.47;;
2408;SDS011;8463;48.094;7.970;2022-10-13T17:21:11;6.53;;;5.67;;
2408;SDS011;8463;48.094;7.970;2022-10-13T17:23:38;10.60;;;7.53;;
2408;SDS011;8463;48.094;7.970;2022-10-13T17:26:05;6.00;;;5.13;;
2408;SDS011;8463;48.094;7.970;2022-10-13T17:28:36;6.07;;;4.30;;
2408;SDS011;8463;48.094;7.970;2022-10-13T17:31:03;8.73;;;5.33;;